Pagina principale
METAR-TAF:

METAR-TAF

Aeroporti :

Aeroporto di Cagliari-Elmas

Cagliari, Italia

latitudine: 39-15N, longitudine: 009-04E, altezza: 4 m

Osservazione

Il bollettino è stato emesso 41 minuti fa, alle 14:20 UTC
Vento 22 kt da nord
Temperature 19°C
Umidità 43%
Pressione 1009 hPa
Visibilità 10 km o più
Poco nuvoloso ad un'altezza di 4000 ft

METAR: LIEE 171420Z 36022KT 9999 FEW040 19/06 Q1009

Ora: 17:01 (15:01 UTC)

Previsione

Il bollettino è stato emesso 4 ore e 1 minuti fa, alle 11:00 UTC
Previsione valida dal 17 alle 12 UTC al 18 alle 12 UTC
Vento 22 kt da nord-ovest con raffiche fino a 35 kt
Visibilità 10 km o più
Poco nuvoloso ad un'altezza di 3000 ft
Evoluzione graduale
dal 17 alle 18 UTC al 17 alle 20 UTC
Vento 12 kt da nord/nord-ovest

TAF: LIEE 171100Z 1712/1812 32022G35KT 9999 FEW030 BECMG 1718/1720 33012KT

Osservazioni e previsioni meteorologiche di più di 4000 aeroporti (messaggi METAR e TAF).

Le stazioni disponibili sono rappresentate dai dischi gialli e rossi sulla carta.

Puntare il mouse per vedere il nome della stazione.

Clicca sopra per visualizzare le osservazioni e previsioni meteorologiche.

Per cambiare la mappa : fare clic sui pulsanti verdi con una croce nera per ingrandire, il pulsante verde con un trattino per diminuire, o sulla freccia verde per le mappe adiacenti.


METAR-TAF: